createdAt,value
2023-02-13T00:00:17.187Z,67.93
2023-02-13T00:03:23.762Z,68.16
2023-02-13T00:06:29.917Z,67.57
2023-02-13T00:09:39.117Z,68.16
2023-02-13T00:12:44.923Z,67.42
2023-02-13T00:15:59.621Z,67.21
2023-02-13T00:19:05.040Z,67.18
2023-02-13T00:22:11.407Z,67.53
2023-02-13T00:25:19.872Z,67.11
2023-02-13T00:28:26.460Z,68.32
2023-02-13T00:31:32.104Z,68.28
2023-02-13T00:34:39.442Z,68.07
2023-02-13T00:37:45.156Z,68.28
2023-02-13T00:40:54.170Z,68.64
2023-02-13T00:43:59.727Z,67.88
2023-02-13T00:47:06.007Z,69.10
2023-02-13T00:50:12.163Z,68.41
2023-02-13T00:53:18.687Z,68.17
2023-02-13T00:56:28.127Z,68.79
2023-02-13T00:59:34.463Z,68.96
2023-02-13T01:02:40.582Z,68.23
2023-02-13T01:05:48.100Z,68.57
2023-02-13T01:08:53.539Z,67.08
2023-02-13T01:12:02.824Z,67.88
2023-02-13T01:15:11.389Z,68.00
2023-02-13T01:18:23.492Z,67.57
2023-02-13T01:21:28.818Z,67.68
2023-02-13T01:24:35.296Z,68.88
2023-02-13T01:27:43.877Z,68.38
2023-02-13T01:30:57.518Z,68.32
2023-02-13T01:34:03.454Z,68.08
2023-02-13T01:37:09.930Z,68.18
2023-02-13T01:40:17.505Z,68.71
2023-02-13T01:43:27.511Z,69.43
2023-02-13T01:46:40.372Z,69.55
2023-02-13T01:49:51.701Z,68.65
2023-02-13T01:53:05.630Z,69.79
2023-02-13T01:56:24.532Z,70.08
2023-02-13T01:59:43.864Z,70.09
2023-02-13T02:03:01.379Z,70.52
2023-02-13T02:06:12.829Z,70.91
2023-02-13T02:09:26.698Z,71.42
2023-02-13T02:12:45.202Z,71.07
2023-02-13T02:15:55.423Z,72.08
2023-02-13T02:19:01.013Z,72.88
2023-02-13T02:22:56.017Z,73.16
2023-02-13T02:26:54.320Z,73.00
2023-02-13T02:30:56.708Z,72.15
2023-02-13T02:34:25.676Z,73.38
2023-02-13T02:38:00.433Z,73.61
2023-02-13T02:41:41.789Z,73.39
2023-02-13T02:45:07.415Z,74.07
2023-02-13T02:48:45.461Z,73.55
2023-02-13T02:52:09.156Z,74.11
2023-02-13T02:55:34.651Z,74.53
2023-02-13T02:59:05.156Z,74.61
2023-02-13T03:02:32.482Z,75.17
2023-02-13T03:06:22.124Z,75.42
2023-02-13T03:09:54.643Z,75.10
2023-02-13T03:13:24.947Z,75.93
2023-02-13T03:16:46.351Z,75.52
2023-02-13T03:20:36.032Z,75.38
2023-02-13T03:24:01.045Z,75.53
2023-02-13T03:27:40.195Z,76.46
2023-02-13T03:31:00.791Z,76.00
2023-02-13T03:34:14.786Z,75.51
2023-02-13T03:37:45.885Z,75.93
2023-02-13T03:41:16.393Z,75.33
2023-02-13T03:44:36.315Z,76.07
2023-02-13T03:47:46.980Z,76.33
2023-02-13T03:50:50.194Z,76.26
2023-02-13T03:54:04.220Z,75.56
2023-02-13T03:57:26.228Z,75.73
2023-02-13T04:00:45.718Z,76.38
2023-02-13T04:04:00.557Z,76.28
2023-02-13T04:07:29.677Z,76.07
2023-02-13T04:10:45.235Z,76.36
2023-02-13T04:14:01.152Z,75.42
2023-02-13T04:17:17.141Z,75.77
2023-02-13T04:20:24.056Z,75.97
2023-02-13T04:23:29.607Z,76.07
2023-02-13T04:26:41.221Z,75.69
2023-02-13T04:29:47.061Z,76.32
2023-02-13T04:32:56.099Z,76.52
2023-02-13T04:36:01.479Z,75.88
2023-02-13T04:39:07.752Z,75.68
2023-02-13T04:42:13.254Z,75.81
2023-02-13T04:45:20.058Z,75.32
2023-02-13T04:48:28.461Z,75.89
2023-02-13T04:51:34.700Z,75.90
2023-02-13T04:54:40.072Z,76.15
2023-02-13T04:57:46.709Z,76.29
2023-02-13T05:00:52.089Z,74.94
2023-02-13T05:04:01.107Z,75.46
2023-02-13T05:07:06.570Z,74.96
2023-02-13T05:10:14.644Z,74.86
2023-02-13T05:13:21.821Z,75.39
2023-02-13T05:16:28.200Z,75.40
2023-02-13T05:19:36.293Z,75.03
2023-02-13T05:23:03.936Z,75.68
2023-02-13T05:26:09.261Z,74.45
2023-02-13T05:29:24.392Z,75.25
2023-02-13T05:32:29.900Z,76.18
2023-02-13T05:35:38.966Z,75.66
2023-02-13T05:38:44.502Z,75.58
2023-02-13T05:41:52.201Z,75.70
2023-02-13T05:44:57.593Z,75.44
2023-02-13T05:48:03.849Z,75.33
2023-02-13T05:51:12.475Z,74.18
2023-02-13T05:54:18.913Z,74.44
2023-02-13T05:57:24.294Z,74.97
2023-02-13T06:00:30.927Z,75.06
2023-02-13T06:03:37.746Z,74.86
2023-02-13T06:06:46.789Z,74.08
2023-02-13T06:09:52.276Z,74.41
2023-02-13T06:12:58.527Z,74.67
2023-02-13T06:16:04.387Z,73.51
2023-02-13T06:19:11.253Z,73.08
2023-02-13T06:22:19.382Z,74.73
2023-02-13T06:25:26.237Z,74.14
2023-02-13T06:28:31.925Z,74.21
2023-02-13T06:31:38.650Z,73.19
2023-02-13T06:34:44.061Z,73.40
2023-02-13T06:37:53.262Z,73.65
2023-02-13T06:41:04.922Z,73.45
2023-02-13T06:44:11.277Z,74.62
2023-02-13T06:47:16.697Z,73.69
2023-02-13T06:50:23.272Z,73.65
2023-02-13T06:53:31.716Z,73.97
2023-02-13T06:56:38.041Z,73.24
2023-02-13T06:59:43.373Z,73.16
2023-02-13T07:02:51.255Z,72.96
2023-02-13T07:05:56.777Z,73.83
2023-02-13T07:09:07.665Z,73.37
2023-02-13T07:12:13.124Z,73.59
2023-02-13T07:15:19.861Z,72.78
2023-02-13T07:18:25.259Z,72.96
2023-02-13T07:21:31.606Z,72.67
2023-02-13T07:24:39.873Z,73.45
2023-02-13T07:27:46.183Z,72.59
2023-02-13T07:30:51.657Z,72.82
2023-02-13T07:34:03.685Z,72.37
2023-02-13T07:37:09.036Z,73.53
2023-02-13T07:40:18.424Z,73.04
2023-02-13T07:43:25.202Z,72.22
2023-02-13T07:46:31.462Z,73.53
2023-02-13T07:49:37.401Z,71.73
2023-02-13T07:52:43.736Z,71.61
2023-02-13T07:55:51.919Z,71.56
2023-02-13T07:58:58.787Z,71.60
2023-02-13T08:02:04.236Z,70.47
2023-02-13T08:05:11.974Z,71.12
2023-02-13T08:08:17.359Z,71.59
2023-02-13T08:11:52.482Z,70.60
2023-02-13T08:14:57.875Z,70.28
2023-02-13T08:18:04.188Z,70.03
2023-02-13T08:21:09.796Z,70.20
2023-02-13T08:24:16.977Z,70.67
2023-02-13T08:27:25.477Z,70.13
2023-02-13T08:30:32.340Z,70.01
2023-02-13T08:33:37.678Z,69.96
2023-02-13T08:36:43.940Z,70.71
2023-02-13T08:39:49.322Z,69.64
2023-02-13T08:43:04.172Z,69.98
2023-02-13T08:46:09.687Z,70.56
2023-02-13T08:49:16.019Z,71.07
2023-02-13T08:52:22.030Z,69.92
2023-02-13T08:55:28.332Z,70.40
2023-02-13T08:58:36.845Z,70.08
2023-02-13T09:01:43.434Z,69.70
2023-02-13T09:04:48.829Z,70.11
2023-02-13T09:07:55.028Z,70.44
2023-02-13T09:11:06.677Z,69.96
2023-02-13T09:14:15.773Z,69.69
2023-02-13T09:17:21.186Z,70.57
2023-02-13T09:20:28.484Z,70.39
2023-02-13T09:23:40.067Z,71.46
2023-02-13T09:26:46.276Z,71.33
2023-02-13T09:29:54.470Z,71.33
2023-02-13T09:33:02.271Z,72.28
2023-02-13T09:36:09.338Z,71.86
2023-02-13T09:39:15.541Z,71.21
2023-02-13T09:42:27.392Z,72.63
2023-02-13T09:45:37.590Z,73.29
2023-02-13T09:48:49.932Z,72.40
2023-02-13T09:52:01.261Z,72.84
2023-02-13T09:55:17.168Z,72.81
2023-02-13T09:58:43.350Z,73.13
2023-02-13T10:01:59.235Z,72.37
2023-02-13T10:05:26.788Z,73.33
2023-02-13T10:08:57.825Z,73.52
2023-02-13T10:12:50.817Z,73.11
2023-02-13T10:16:11.834Z,72.40
2023-02-13T10:19:39.202Z,73.21
2023-02-13T10:22:55.047Z,72.62
2023-02-13T10:26:06.866Z,72.43
2023-02-13T10:29:41.441Z,73.06
2023-02-13T10:33:14.270Z,72.32
2023-02-13T10:36:30.600Z,71.32
2023-02-13T10:39:36.916Z,71.35
2023-02-13T10:42:49.638Z,71.46
2023-02-13T10:46:15.856Z,71.24
2023-02-13T10:49:49.591Z,72.13
2023-02-13T10:53:17.404Z,72.24
2023-02-13T10:56:34.180Z,71.20
2023-02-13T11:00:08.498Z,71.41
2023-02-13T11:03:23.150Z,71.92
2023-02-13T11:06:31.052Z,72.67
2023-02-13T11:09:47.165Z,71.92
2023-02-13T11:12:55.076Z,70.97
2023-02-13T11:16:06.279Z,73.07
2023-02-13T11:19:23.005Z,72.25
2023-02-13T11:22:39.517Z,72.26
2023-02-13T11:26:00.590Z,72.04
2023-02-13T11:29:21.842Z,72.09
2023-02-13T11:32:30.885Z,71.46
2023-02-13T11:35:39.862Z,71.12
2023-02-13T11:38:47.120Z,70.39
2023-02-13T11:41:56.097Z,71.14
2023-02-13T11:45:07.376Z,70.64
2023-02-13T11:48:23.757Z,71.03
2023-02-13T11:51:42.009Z,71.10
2023-02-13T11:54:58.050Z,72.16
2023-02-13T11:58:27.787Z,72.48
2023-02-13T12:01:33.273Z,72.40
2023-02-13T12:04:39.757Z,72.16
2023-02-13T12:07:47.405Z,73.40
2023-02-13T12:10:54.195Z,72.86
2023-02-13T12:14:03.424Z,73.02
2023-02-13T12:17:30.667Z,73.14
2023-02-13T12:20:55.955Z,72.45
2023-02-13T12:24:22.437Z,73.08
2023-02-13T12:27:45.936Z,73.88
2023-02-13T12:31:26.104Z,73.66
2023-02-13T12:35:45.729Z,72.96
2023-02-13T12:39:21.098Z,73.17
2023-02-13T12:42:44.296Z,74.05
2023-02-13T12:46:09.573Z,73.77
2023-02-13T12:49:45.609Z,74.43
2023-02-13T12:53:48.359Z,73.65
2023-02-13T12:57:23.798Z,74.56
2023-02-13T13:00:51.076Z,73.91
2023-02-13T13:04:21.146Z,73.56
2023-02-13T13:08:00.480Z,74.16
2023-02-13T13:11:33.368Z,74.47
2023-02-13T13:14:56.399Z,73.83
2023-02-13T13:18:20.946Z,73.60
2023-02-13T13:21:44.824Z,73.80
2023-02-13T13:25:14.109Z,75.47
2023-02-13T13:28:27.470Z,75.18
2023-02-13T13:31:39.689Z,74.92
2023-02-13T13:34:46.864Z,76.36
2023-02-13T13:38:14.761Z,76.56
2023-02-13T13:41:35.615Z,75.87
2023-02-13T13:45:13.202Z,75.62
2023-02-13T13:49:03.567Z,74.10
2023-02-13T13:52:29.108Z,74.60
2023-02-13T13:56:11.668Z,74.52
2023-02-13T13:59:21.568Z,74.93
2023-02-13T14:02:44.782Z,74.83
2023-02-13T14:06:13.704Z,75.62
2023-02-13T14:09:44.045Z,73.91
2023-02-13T14:13:04.283Z,73.15
2023-02-13T14:16:15.250Z,73.29
2023-02-13T14:19:33.087Z,74.11
2023-02-13T14:22:42.266Z,72.45
2023-02-13T14:25:48.895Z,71.49
2023-02-13T14:29:28.644Z,73.02
2023-02-13T14:32:37.916Z,72.51
2023-02-13T14:35:44.209Z,73.54
2023-02-13T14:39:00.195Z,71.76
2023-02-13T14:42:24.710Z,71.88
2023-02-13T14:45:44.140Z,72.49
2023-02-13T14:49:01.842Z,72.80
2023-02-13T14:52:18.610Z,72.40
2023-02-13T14:55:38.954Z,71.04
2023-02-13T14:58:56.062Z,70.71
2023-02-13T15:02:21.753Z,71.32
2023-02-13T15:05:37.376Z,70.60
2023-02-13T15:08:52.330Z,69.90
2023-02-13T15:11:57.986Z,70.30
2023-02-13T15:15:07.517Z,71.02
2023-02-13T15:18:28.938Z,70.41
2023-02-13T15:21:37.380Z,68.50
2023-02-13T15:24:51.361Z,68.93
2023-02-13T15:27:59.957Z,68.80
2023-02-13T15:31:09.680Z,69.72
2023-02-13T15:34:37.456Z,70.23
2023-02-13T15:37:42.835Z,70.09
2023-02-13T15:40:49.301Z,70.60
2023-02-13T15:44:00.947Z,70.96
2023-02-13T15:47:12.009Z,71.33
2023-02-13T15:50:36.148Z,70.13
2023-02-13T15:53:54.518Z,71.98
2023-02-13T15:57:04.647Z,71.33
2023-02-13T16:00:26.657Z,71.66
2023-02-13T16:03:35.429Z,71.49
2023-02-13T16:06:47.189Z,72.24
2023-02-13T16:09:53.924Z,72.83
2023-02-13T16:13:05.904Z,73.11
2023-02-13T16:16:14.373Z,72.59
2023-02-13T16:19:36.814Z,71.41
2023-02-13T16:22:50.491Z,71.88
2023-02-13T16:26:05.730Z,71.67
2023-02-13T16:29:14.837Z,71.18
2023-02-13T16:32:34.278Z,71.91
2023-02-13T16:35:42.905Z,70.38
2023-02-13T16:38:53.379Z,71.62
2023-02-13T16:41:59.506Z,71.27
2023-02-13T16:45:25.657Z,70.25
2023-02-13T16:48:31.130Z,70.29
2023-02-13T16:51:44.029Z,69.90
2023-02-13T16:54:59.306Z,70.61
2023-02-13T16:58:08.860Z,69.74
2023-02-13T17:01:20.718Z,70.21
2023-02-13T17:04:28.745Z,70.11
2023-02-13T17:07:39.037Z,70.52
2023-02-13T17:11:07.131Z,70.30
2023-02-13T17:14:12.504Z,70.26
2023-02-13T17:17:22.870Z,70.60
2023-02-13T17:20:32.001Z,70.28
2023-02-13T17:23:38.386Z,69.62
2023-02-13T17:26:46.705Z,70.39
2023-02-13T17:29:53.124Z,69.84
2023-02-13T17:33:05.414Z,68.19
2023-02-13T17:36:16.152Z,68.10
2023-02-13T17:39:21.494Z,68.11
2023-02-13T17:42:33.326Z,69.66
2023-02-13T17:45:39.704Z,68.77
2023-02-13T17:48:45.997Z,68.83
2023-02-13T17:51:51.471Z,68.51
2023-02-13T17:54:57.909Z,68.30
2023-02-13T17:58:06.760Z,68.66
2023-02-13T18:01:14.611Z,67.89
2023-02-13T18:04:20.256Z,67.90
2023-02-13T18:07:26.505Z,68.73
2023-02-13T18:10:35.383Z,67.67
2023-02-13T18:13:48.239Z,68.02
2023-02-13T18:16:53.637Z,68.57
2023-02-13T18:20:00.477Z,67.79
2023-02-13T18:23:07.337Z,68.61
2023-02-13T18:26:14.199Z,68.81
2023-02-13T18:29:22.339Z,67.97
2023-02-13T18:32:29.417Z,67.98
2023-02-13T18:35:37.587Z,67.68
2023-02-13T18:38:43.914Z,67.93
2023-02-13T18:41:50.234Z,67.97
2023-02-13T18:44:59.485Z,66.84
2023-02-13T18:48:05.432Z,68.15
2023-02-13T18:51:11.993Z,68.67
2023-02-13T18:54:18.126Z,68.72
2023-02-13T18:57:24.478Z,67.74
2023-02-13T19:00:33.155Z,68.17
2023-02-13T19:03:40.547Z,69.04
2023-02-13T19:06:47.884Z,68.52
2023-02-13T19:09:56.485Z,68.38
2023-02-13T19:13:02.133Z,67.76
2023-02-13T19:16:15.800Z,68.22
2023-02-13T19:19:21.290Z,68.00
2023-02-13T19:22:27.556Z,68.07
2023-02-13T19:25:34.137Z,66.99
2023-02-13T19:28:40.924Z,67.80
2023-02-13T19:31:49.249Z,67.53
2023-02-13T19:34:55.725Z,66.56
2023-02-13T19:38:01.163Z,67.45
2023-02-13T19:41:08.839Z,67.28
2023-02-13T19:44:14.733Z,66.96
2023-02-13T19:47:23.749Z,66.82
2023-02-13T19:50:29.171Z,67.43
2023-02-13T19:53:35.410Z,67.74
2023-02-13T19:56:43.910Z,67.59
2023-02-13T19:59:51.046Z,67.75
2023-02-13T20:03:04.399Z,67.83
2023-02-13T20:06:14.760Z,67.81
2023-02-13T20:09:20.300Z,68.36
2023-02-13T20:12:26.532Z,68.04
2023-02-13T20:15:32.540Z,67.69
2023-02-13T20:18:42.998Z,67.63
2023-02-13T20:21:48.459Z,67.86
2023-02-13T20:24:54.764Z,68.11
2023-02-13T20:28:00.299Z,66.80
2023-02-13T20:31:13.720Z,67.21
2023-02-13T20:34:22.065Z,66.64
2023-02-13T20:37:28.371Z,66.81
2023-02-13T20:40:33.853Z,66.65
2023-02-13T20:43:40.779Z,66.13
2023-02-13T20:46:46.493Z,66.33
2023-02-13T20:49:55.634Z,67.20
2023-02-13T20:53:01.865Z,66.51
2023-02-13T20:56:11.361Z,66.83
2023-02-13T20:59:16.763Z,67.17
2023-02-13T21:02:23.256Z,67.30
2023-02-13T21:05:31.402Z,68.05
2023-02-13T21:08:37.954Z,67.60
2023-02-13T21:11:47.654Z,67.22
2023-02-13T21:14:54.102Z,67.28
2023-02-13T21:18:02.178Z,67.81
2023-02-13T21:21:14.010Z,68.30
2023-02-13T21:24:23.045Z,67.61
2023-02-13T21:27:29.449Z,68.25
2023-02-13T21:30:34.866Z,67.97
2023-02-13T21:33:41.489Z,67.69
2023-02-13T21:36:50.286Z,67.82
2023-02-13T21:39:56.547Z,68.98
2023-02-13T21:43:01.957Z,68.12
2023-02-13T21:46:13.161Z,69.40
2023-02-13T21:49:22.351Z,69.38
2023-02-13T21:52:31.385Z,68.54
2023-02-13T21:55:37.153Z,68.96
2023-02-13T21:58:46.569Z,68.86
2023-02-13T22:01:58.513Z,69.01
2023-02-13T22:05:04.841Z,69.24
2023-02-13T22:08:14.230Z,69.83
2023-02-13T22:11:29.127Z,70.17
2023-02-13T22:14:36.713Z,70.46
2023-02-13T22:17:42.879Z,70.16
2023-02-13T22:20:48.235Z,70.91
2023-02-13T22:23:58.331Z,71.77
2023-02-13T22:27:05.213Z,70.80
2023-02-13T22:30:12.551Z,70.81
2023-02-13T22:33:18.130Z,70.31
2023-02-13T22:36:25.158Z,69.41
2023-02-13T22:39:34.068Z,69.65
2023-02-13T22:42:40.294Z,69.74
2023-02-13T22:45:45.655Z,69.72
2023-02-13T22:48:52.991Z,70.52
2023-02-13T22:51:58.284Z,70.31
2023-02-13T22:55:08.044Z,69.67
2023-02-13T22:58:13.601Z,70.43
2023-02-13T23:01:22.711Z,70.76
2023-02-13T23:04:28.095Z,69.87
2023-02-13T23:07:34.663Z,70.69
2023-02-13T23:11:04.088Z,69.80
2023-02-13T23:14:10.468Z,69.44
2023-02-13T23:17:31.843Z,70.98
2023-02-13T23:20:38.861Z,70.09
2023-02-13T23:23:44.245Z,69.33
2023-02-13T23:26:53.297Z,69.36
2023-02-13T23:29:58.715Z,68.80
2023-02-13T23:33:05.417Z,68.73
2023-02-13T23:36:11.655Z,67.99
2023-02-13T23:39:17.848Z,67.78
2023-02-13T23:42:26.290Z,68.30
2023-02-13T23:45:32.696Z,67.67
2023-02-13T23:48:38.228Z,67.98
2023-02-13T23:51:44.495Z,68.27
2023-02-13T23:54:50.113Z,67.12
2023-02-13T23:57:59.119Z,67.06
